Global Bonanza — 3EZB — position and weather

sailwx.info

Track history (hours):
 
Tides and Currents Weather Stations Pressure Air Temp Water Temp Dewpoint Dewpoint Depression Visibility Wind Speed Wind Dir Waves Ship Positions

Global Bonanza

Last reported at 2018-Jul-16 13:47 UTC. Time now 2018-Jul-19 17:30 UTC.
Position N 01°25' E 104°28'.

Length 225 m; draft 12.9 m.

Type: Cargo ship. MMSI: 371888000.

Date/timePositionNaut miles runAvg speedWind from/ knotsBaromVisibWave heightAir tempDewpointWater temp
2018-Jul-16 13:47N 01°25' E 104°28'411.0
2018-Jul-16 13:26N 01°22' E 104°26'510.7
2018-Jul-16 12:59N 01°19' E 104°22'510.2
2018-Jul-16 12:28N 01°17' E 104°17'510.8
2018-Jul-16 11:59N 01°16' E 104°12'511.2
2018-Jul-16 11:30N 01°15' E 104°07'710.2
2018-Jul-16 10:50N 01°15' E 104°00'3 7.5
2018-Jul-16 10:30N 01°16' E 103°58'1 2.0
2018-Jul-16 09:57N 01°16' E 103°57'0 0.0
2018-Jul-16 09:18N 01°17' E 103°57'0 0.0
2018-Jul-16 08:54N 01°17' E 103°57'0 0.2
2018-Jul-16 08:30N 01°17' E 103°57'0 0.0
2018-Jul-16 07:57N 01°16' E 103°57'0 0.0
2018-Jul-16 07:30N 01°16' E 103°57'0 0.1
2018-Jul-16 06:51N 01°16' E 103°57'0 0.2
2018-Jul-16 06:27N 01°16' E 103°57'0 0.0
2018-Jul-16 05:51N 01°16' E 103°57'0 0.0
2018-Jul-16 05:27N 01°16' E 103°57'0 0.0
2018-Jul-16 04:54N 01°16' E 103°57'0 0.0
2018-Jul-16 04:09N 01°16' E 103°57'0 0.0
2018-Jul-16 03:57N 01°16' E 103°57'0 0.0
2018-Jul-16 03:27N 01°16' E 103°57'0 0.0
2018-Jul-16 02:48N 01°16' E 103°57'0 0.1
2018-Jul-16 02:30N 01°16' E 103°57'0 0.1
2018-Jul-16 01:57N 01°16' E 103°57'0 0.0
2018-Jul-16 01:30N 01°16' E 103°57'0 0.0
2018-Jul-16 00:39N 01°16' E 103°57'0 0.1
2018-Jul-16 00:27N 01°16' E 103°57'0 0.0
2018-Jul-15 23:57N 01°16' E 103°57'0 0.1
2018-Jul-15 23:30N 01°16' E 103°57'1 1.5
2018-Jul-15 22:59N 01°16' E 103°58'2 3.4
2018-Jul-15 22:30N 01°15' E 103°57'3 5.5
2018-Jul-15 22:00N 01°13' E 103°55'4 7.9
2018-Jul-15 21:30N 01°11' E 103°51'4 8.5
2018-Jul-15 21:01N 01°09' E 103°48'4 8.8
2018-Jul-15 20:30N 01°06' E 103°44'4 8.2
2018-Jul-15 20:01N 01°04' E 103°41'4 7.6
2018-Jul-15 19:30N 01°03' E 103°37'4 8.4
2018-Jul-15 19:00N 01°05' E 103°34'4 8.9
2018-Jul-15 18:30N 01°08' E 103°30'4 8.4
2018-Jul-15 18:00N 01°10' E 103°26'4 8.9
2018-Jul-15 17:30N 01°12' E 103°23'5 9.0
2018-Jul-15 16:59N 01°15' E 103°19'5 9.8
2018-Jul-15 16:29N 01°19' E 103°15'612.0
2018-Jul-15 15:58N 01°23' E 103°11'612.3
2018-Jul-15 15:29N 01°27' E 103°06'  
Track history (hours):
 
Tides and Currents Weather Stations Pressure Air Temp Water Temp Dewpoint Dewpoint Depression Visibility Wind Speed Wind Dir Waves Ship Positions

Global Bonanza

Last reported at 2018-Jul-16 13:47 UTC. Time now 2018-Jul-19 17:30 UTC.
Position N 01°25' E 104°28'.

Length 225 m; draft 12.9 m.

Type: Cargo ship. MMSI: 371888000.

Date/timePositionNaut miles runAvg speedWind from/ knotsBaromVisibWave heightAir tempDewpointWater temp
2018-Jul-16 13:47N 01°25' E 104°28'411.0
2018-Jul-16 13:26N 01°22' E 104°26'510.7
2018-Jul-16 12:59N 01°19' E 104°22'510.2
2018-Jul-16 12:28N 01°17' E 104°17'510.8
2018-Jul-16 11:59N 01°16' E 104°12'511.2
2018-Jul-16 11:30N 01°15' E 104°07'710.2
2018-Jul-16 10:50N 01°15' E 104°00'3 7.5
2018-Jul-16 10:30N 01°16' E 103°58'1 2.0
2018-Jul-16 09:57N 01°16' E 103°57'0 0.0
2018-Jul-16 09:18N 01°17' E 103°57'0 0.0
2018-Jul-16 08:54N 01°17' E 103°57'0 0.2
2018-Jul-16 08:30N 01°17' E 103°57'0 0.0
2018-Jul-16 07:57N 01°16' E 103°57'0 0.0
2018-Jul-16 07:30N 01°16' E 103°57'0 0.1
2018-Jul-16 06:51N 01°16' E 103°57'0 0.2
2018-Jul-16 06:27N 01°16' E 103°57'0 0.0
2018-Jul-16 05:51N 01°16' E 103°57'0 0.0
2018-Jul-16 05:27N 01°16' E 103°57'0 0.0
2018-Jul-16 04:54N 01°16' E 103°57'0 0.0
2018-Jul-16 04:09N 01°16' E 103°57'0 0.0
2018-Jul-16 03:57N 01°16' E 103°57'0 0.0
2018-Jul-16 03:27N 01°16' E 103°57'0 0.0
2018-Jul-16 02:48N 01°16' E 103°57'0 0.1
2018-Jul-16 02:30N 01°16' E 103°57'0 0.1
2018-Jul-16 01:57N 01°16' E 103°57'0 0.0
2018-Jul-16 01:30N 01°16' E 103°57'0 0.0
2018-Jul-16 00:39N 01°16' E 103°57'0 0.1
2018-Jul-16 00:27N 01°16' E 103°57'0 0.0
2018-Jul-15 23:57N 01°16' E 103°57'0 0.1
2018-Jul-15 23:30N 01°16' E 103°57'1 1.5
2018-Jul-15 22:59N 01°16' E 103°58'2 3.4
2018-Jul-15 22:30N 01°15' E 103°57'3 5.5
2018-Jul-15 22:00N 01°13' E 103°55'4 7.9
2018-Jul-15 21:30N 01°11' E 103°51'4 8.5
2018-Jul-15 21:01N 01°09' E 103°48'4 8.8
2018-Jul-15 20:30N 01°06' E 103°44'4 8.2
2018-Jul-15 20:01N 01°04' E 103°41'4 7.6
2018-Jul-15 19:30N 01°03' E 103°37'4 8.4
2018-Jul-15 19:00N 01°05' E 103°34'4 8.9
2018-Jul-15 18:30N 01°08' E 103°30'4 8.4
2018-Jul-15 18:00N 01°10' E 103°26'4 8.9
2018-Jul-15 17:30N 01°12' E 103°23'5 9.0
2018-Jul-15 16:59N 01°15' E 103°19'5 9.8
2018-Jul-15 16:29N 01°19' E 103°15'612.0
2018-Jul-15 15:58N 01°23' E 103°11'612.3
2018-Jul-15 15:29N 01°27' E 103°06'  

Dump ship's entire track history